createdAt,value
2023-05-24T00:02:18.825Z,26.20
2023-05-24T00:04:37.272Z,21.92
2023-05-24T00:06:54.453Z,23.00
2023-05-24T00:09:12.030Z,23.48
2023-05-24T00:11:29.822Z,25.17
2023-05-24T00:13:49.278Z,24.65
2023-05-24T00:16:06.731Z,21.17
2023-05-24T00:18:24.503Z,23.10
2023-05-24T00:20:42.225Z,23.88
2023-05-24T00:23:00.182Z,20.13
2023-05-24T00:25:17.464Z,24.55
2023-05-24T00:27:34.700Z,23.52
2023-05-24T00:29:51.856Z,24.65
2023-05-24T00:32:12.041Z,24.33
2023-05-24T00:34:29.143Z,19.63
2023-05-24T00:36:49.193Z,20.60
2023-05-24T00:39:06.615Z,23.90
2023-05-24T00:41:24.246Z,21.92
2023-05-24T00:43:42.050Z,19.02
2023-05-24T00:46:00.516Z,20.67
2023-05-24T00:48:20.772Z,18.33
2023-05-24T00:50:38.444Z,21.40
2023-05-24T00:52:55.541Z,19.30
2023-05-24T00:55:13.302Z,20.67
2023-05-24T00:57:31.022Z,21.75
2023-05-24T00:59:48.314Z,20.98
2023-05-24T01:02:06.624Z,21.05
2023-05-24T01:04:23.991Z,21.50
2023-05-24T01:06:41.407Z,19.48
2023-05-24T01:08:59.234Z,23.65
2023-05-24T01:11:17.598Z,23.95
2023-05-24T01:13:34.949Z,18.48
2023-05-24T01:15:53.466Z,21.70
2023-05-24T01:18:11.073Z,24.20
2023-05-24T01:20:28.205Z,20.33
2023-05-24T01:22:46.584Z,21.58
2023-05-24T01:25:03.804Z,21.10
2023-05-24T01:27:20.840Z,22.88
2023-05-24T01:29:38.284Z,18.63
2023-05-24T01:31:55.418Z,17.80
2023-05-24T01:34:12.754Z,18.65
2023-05-24T01:36:31.601Z,18.40
2023-05-24T01:38:50.264Z,18.98
2023-05-24T01:41:07.431Z,19.10
2023-05-24T01:43:27.395Z,17.83
2023-05-24T01:45:44.409Z,18.52
2023-05-24T01:48:01.933Z,20.55
2023-05-24T01:50:19.483Z,18.40
2023-05-24T01:52:36.903Z,19.77
2023-05-24T01:54:53.852Z,18.42
2023-05-24T01:57:11.536Z,19.67
2023-05-24T01:59:28.874Z,21.30
2023-05-24T02:01:47.416Z,17.20
2023-05-24T02:04:04.836Z,20.83
2023-05-24T02:06:22.220Z,21.00
2023-05-24T02:08:39.606Z,21.10
2023-05-24T02:10:56.897Z,17.75
2023-05-24T02:13:14.194Z,15.18
2023-05-24T02:15:31.576Z,19.80
2023-05-24T02:17:48.942Z,18.92
2023-05-24T02:20:06.232Z,19.60
2023-05-24T02:22:23.235Z,18.50
2023-05-24T02:24:40.891Z,15.95
2023-05-24T02:26:58.268Z,19.35
2023-05-24T02:29:16.032Z,17.27
2023-05-24T02:31:33.528Z,19.83
2023-05-24T02:33:50.931Z,15.45
2023-05-24T02:36:08.269Z,15.13
2023-05-24T02:38:26.567Z,18.92
2023-05-24T02:40:44.164Z,14.93
2023-05-24T02:43:01.614Z,22.27
2023-05-24T02:45:18.989Z,15.27
2023-05-24T02:47:36.302Z,16.10
2023-05-24T02:49:53.598Z,17.17
2023-05-24T02:52:11.934Z,29.02
2023-05-24T02:54:29.250Z,18.35
2023-05-24T02:56:46.557Z,17.55
2023-05-24T02:59:04.247Z,15.27
2023-05-24T03:01:22.675Z,17.52
2023-05-24T03:03:40.178Z,19.23
2023-05-24T03:05:57.513Z,15.30
2023-05-24T03:08:14.379Z,15.68
2023-05-24T03:10:31.687Z,17.33
2023-05-24T03:12:49.063Z,16.15
2023-05-24T03:15:05.951Z,15.07
2023-05-24T03:17:22.792Z,16.80
2023-05-24T03:19:39.727Z,17.17
2023-05-24T03:21:57.098Z,16.25
2023-05-24T03:24:13.968Z,15.07
2023-05-24T03:26:30.902Z,14.80
2023-05-24T03:28:48.048Z,15.23
2023-05-24T03:31:04.961Z,14.50
2023-05-24T03:33:22.027Z,18.75
2023-05-24T03:35:38.919Z,17.20
2023-05-24T03:37:55.817Z,15.07
2023-05-24T03:40:12.734Z,16.58
2023-05-24T03:42:29.588Z,13.02
2023-05-24T03:44:46.888Z,16.98
2023-05-24T03:47:03.835Z,19.00
2023-05-24T03:49:20.793Z,14.98
2023-05-24T03:51:37.724Z,16.40
2023-05-24T03:53:54.648Z,16.27
2023-05-24T03:56:11.537Z,14.15
2023-05-24T03:58:28.502Z,14.82
2023-05-24T04:00:45.931Z,13.60
2023-05-24T04:03:02.956Z,15.10
2023-05-24T04:05:19.890Z,17.77
2023-05-24T04:07:36.876Z,19.67
2023-05-24T04:09:53.773Z,14.23
2023-05-24T04:12:10.655Z,13.65
2023-05-24T04:14:27.540Z,18.48
2023-05-24T04:16:44.507Z,12.23
2023-05-24T04:19:01.495Z,15.52
2023-05-24T04:21:18.417Z,14.82
2023-05-24T04:23:35.323Z,15.20
2023-05-24T04:25:52.252Z,13.60
2023-05-24T04:28:09.129Z,17.75
2023-05-24T04:30:26.051Z,15.65
2023-05-24T04:32:42.993Z,13.93
2023-05-24T04:34:59.931Z,14.68
2023-05-24T04:37:16.829Z,14.43
2023-05-24T04:39:33.755Z,12.48
2023-05-24T04:41:50.683Z,17.85
2023-05-24T04:44:07.583Z,18.90
2023-05-24T04:46:25.015Z,15.40
2023-05-24T04:48:41.950Z,18.38
2023-05-24T04:50:58.912Z,14.43
2023-05-24T04:53:15.828Z,16.17
2023-05-24T04:55:32.728Z,14.07
2023-05-24T04:57:49.657Z,12.77
2023-05-24T05:00:07.038Z,11.13
2023-05-24T05:02:24.574Z,13.43
2023-05-24T05:04:41.552Z,16.15
2023-05-24T05:06:58.949Z,17.00
2023-05-24T05:09:15.832Z,16.73
2023-05-24T05:11:32.794Z,13.13
2023-05-24T05:13:49.708Z,12.95
2023-05-24T05:16:06.691Z,12.48
2023-05-24T05:18:23.615Z,13.20
2023-05-24T05:20:41.304Z,11.57
2023-05-24T05:22:58.437Z,11.40
2023-05-24T05:25:15.833Z,15.02
2023-05-24T05:27:32.768Z,13.93
2023-05-24T05:29:49.704Z,13.43
2023-05-24T05:32:06.741Z,13.57
2023-05-24T05:34:24.186Z,12.45
2023-05-24T05:36:41.599Z,14.90
2023-05-24T05:38:58.579Z,14.55
2023-05-24T05:41:15.454Z,13.95
2023-05-24T05:43:32.329Z,14.85
2023-05-24T05:45:49.820Z,11.48
2023-05-24T05:48:06.795Z,13.13
2023-05-24T05:50:23.706Z,16.13
2023-05-24T05:52:40.628Z,14.90
2023-05-24T05:54:57.602Z,11.43
2023-05-24T05:57:14.542Z,15.05
2023-05-24T05:59:31.421Z,17.38
2023-05-24T06:01:48.322Z,14.18
2023-05-24T06:04:05.296Z,12.35
2023-05-24T06:06:22.291Z,15.85
2023-05-24T06:08:39.184Z,13.25
2023-05-24T06:10:56.090Z,13.38
2023-05-24T06:13:13.464Z,9.43
2023-05-24T06:15:30.380Z,15.95
2023-05-24T06:17:47.355Z,10.57
2023-05-24T06:20:04.260Z,15.15
2023-05-24T06:22:21.191Z,13.50
2023-05-24T06:24:38.146Z,10.07
2023-05-24T06:26:55.512Z,12.18
2023-05-24T06:29:12.425Z,11.10
2023-05-24T06:31:29.410Z,19.77
2023-05-24T06:33:52.521Z,14.13
2023-05-24T06:36:13.688Z,13.48
2023-05-24T06:38:30.567Z,10.63
2023-05-24T06:40:47.505Z,9.77
2023-05-24T06:43:04.450Z,14.02
2023-05-24T06:45:21.372Z,12.52
2023-05-24T06:47:40.373Z,10.50
2023-05-24T06:49:57.302Z,12.52
2023-05-24T06:52:14.256Z,11.10
2023-05-24T06:54:31.342Z,11.07
2023-05-24T06:56:48.227Z,13.45
2023-05-24T06:59:05.149Z,12.60
2023-05-24T07:01:22.124Z,12.85
2023-05-24T07:03:39.118Z,13.35
2023-05-24T07:05:56.036Z,21.05
2023-05-24T07:08:12.976Z,13.43
2023-05-24T07:10:29.954Z,12.77
2023-05-24T07:12:46.837Z,12.38
2023-05-24T07:15:03.762Z,14.45
2023-05-24T07:17:20.708Z,15.52
2023-05-24T07:19:38.217Z,10.45
2023-05-24T07:21:55.137Z,11.85
2023-05-24T07:24:13.090Z,13.65
2023-05-24T07:26:31.654Z,11.95
2023-05-24T07:28:49.046Z,13.10
2023-05-24T07:31:05.963Z,12.80
2023-05-24T07:33:22.890Z,15.38
2023-05-24T07:35:39.945Z,10.95
2023-05-24T07:37:56.923Z,12.05
2023-05-24T07:40:13.837Z,10.57
2023-05-24T07:42:30.735Z,11.35
2023-05-24T07:44:48.156Z,7.47
2023-05-24T07:47:05.062Z,8.88
2023-05-24T07:49:22.436Z,11.38
2023-05-24T07:51:39.323Z,11.35
2023-05-24T07:53:56.219Z,10.65
2023-05-24T07:56:13.164Z,10.63
2023-05-24T07:58:30.108Z,9.30
2023-05-24T08:00:47.057Z,8.63
2023-05-24T08:03:04.002Z,9.82
2023-05-24T08:05:21.012Z,12.15
2023-05-24T08:07:37.911Z,11.35
2023-05-24T08:09:54.842Z,10.15
2023-05-24T08:12:11.732Z,9.63
2023-05-24T08:14:28.692Z,8.43
2023-05-24T08:16:45.714Z,11.85
2023-05-24T08:19:02.644Z,9.10
2023-05-24T08:21:19.550Z,8.73
2023-05-24T08:23:36.498Z,9.77
2023-05-24T08:25:53.461Z,11.60
2023-05-24T08:28:10.442Z,9.90
2023-05-24T08:30:27.689Z,8.23
2023-05-24T08:32:44.693Z,8.82
2023-05-24T08:35:18.230Z,8.18
2023-05-24T08:37:36.897Z,8.75
2023-05-24T08:39:53.847Z,9.23
2023-05-24T08:42:10.865Z,7.95
2023-05-24T08:44:27.834Z,9.93
2023-05-24T08:46:44.801Z,8.00
2023-05-24T08:49:01.830Z,10.30
2023-05-24T08:51:18.781Z,7.95
2023-05-24T08:53:35.705Z,11.50
2023-05-24T08:55:52.631Z,9.55
2023-05-24T08:58:09.568Z,10.75
2023-05-24T09:00:26.502Z,11.25
2023-05-24T09:02:43.475Z,9.40
2023-05-24T09:05:00.422Z,9.27
2023-05-24T09:07:17.786Z,9.40
2023-05-24T09:09:34.810Z,13.85
2023-05-24T09:11:51.695Z,7.93
2023-05-24T09:14:08.588Z,8.95
2023-05-24T09:16:25.555Z,9.60
2023-05-24T09:18:42.548Z,9.15
2023-05-24T09:20:59.519Z,9.55
2023-05-24T09:23:16.416Z,7.60
2023-05-24T09:25:33.346Z,12.02
2023-05-24T09:27:50.248Z,9.88
2023-05-24T09:30:07.176Z,12.50
2023-05-24T09:32:24.144Z,10.13
2023-05-24T09:34:41.056Z,8.52
2023-05-24T09:36:57.993Z,11.40
2023-05-24T09:39:14.902Z,9.18
2023-05-24T09:41:31.805Z,14.13
2023-05-24T09:43:48.729Z,11.85
2023-05-24T09:46:05.658Z,9.95
2023-05-24T09:48:23.043Z,10.70
2023-05-24T09:50:39.994Z,9.55
2023-05-24T09:52:56.901Z,9.05
2023-05-24T09:55:13.880Z,12.25
2023-05-24T09:57:30.874Z,8.02
2023-05-24T09:59:47.830Z,10.23
2023-05-24T10:02:04.697Z,8.27
2023-05-24T10:04:21.750Z,15.60
2023-05-24T10:06:39.202Z,9.63
2023-05-24T10:08:56.103Z,10.02
2023-05-24T10:11:12.986Z,6.97
2023-05-24T10:13:30.453Z,8.55
2023-05-24T10:15:47.490Z,10.60
2023-05-24T10:18:04.486Z,9.98
2023-05-24T10:20:21.551Z,8.18
2023-05-24T10:22:39.015Z,12.05
2023-05-24T10:24:55.895Z,11.38
2023-05-24T10:27:12.798Z,10.95
2023-05-24T10:29:29.739Z,11.65
2023-05-24T10:31:47.303Z,11.50
2023-05-24T10:34:08.356Z,10.65
2023-05-24T10:36:25.945Z,7.50
2023-05-24T10:38:42.883Z,9.32
2023-05-24T10:40:59.848Z,9.10
2023-05-24T10:43:16.780Z,9.82
2023-05-24T10:45:33.698Z,10.15
2023-05-24T10:47:50.602Z,10.77
2023-05-24T10:50:07.554Z,10.98
2023-05-24T10:52:24.440Z,10.52
2023-05-24T10:54:49.640Z,12.65
2023-05-24T10:57:16.630Z,11.93
2023-05-24T10:59:33.565Z,11.20
2023-05-24T11:01:50.621Z,10.52
2023-05-24T11:04:07.565Z,13.63
2023-05-24T11:06:24.452Z,12.02
2023-05-24T11:08:41.904Z,12.55
2023-05-24T11:11:05.707Z,11.55
2023-05-24T11:13:28.660Z,8.85
2023-05-24T11:15:46.054Z,11.07
2023-05-24T11:18:03.029Z,14.85
2023-05-24T11:20:20.460Z,10.80
2023-05-24T11:22:37.390Z,10.68
2023-05-24T11:24:54.264Z,11.48
2023-05-24T11:27:11.323Z,12.55
2023-05-24T11:29:28.811Z,9.88
2023-05-24T11:31:45.847Z,14.90
2023-05-24T11:34:03.427Z,10.75
2023-05-24T11:36:20.403Z,12.63
2023-05-24T11:38:37.355Z,11.30
2023-05-24T11:40:54.288Z,11.60
2023-05-24T11:43:11.207Z,10.07
2023-05-24T11:45:28.113Z,13.25
2023-05-24T11:47:45.054Z,12.48
2023-05-24T11:50:02.515Z,12.57
2023-05-24T11:52:19.428Z,14.95
2023-05-24T11:54:36.342Z,12.48
2023-05-24T11:56:53.671Z,10.48
2023-05-24T11:59:10.602Z,9.30
2023-05-24T12:01:27.619Z,11.30
2023-05-24T12:03:44.807Z,14.73
2023-05-24T12:06:01.884Z,16.38
2023-05-24T12:08:18.800Z,12.10
2023-05-24T12:10:35.717Z,9.93
2023-05-24T12:12:52.754Z,11.88
2023-05-24T12:15:09.649Z,11.20
2023-05-24T12:17:26.629Z,12.10
2023-05-24T12:19:43.673Z,11.38
2023-05-24T12:22:00.731Z,10.55
2023-05-24T12:24:17.645Z,13.80
2023-05-24T12:26:34.586Z,11.63
2023-05-24T12:28:51.939Z,9.07
2023-05-24T12:31:08.924Z,10.05
2023-05-24T12:33:25.835Z,15.73
2023-05-24T12:35:42.730Z,11.35
2023-05-24T12:37:59.592Z,14.88
2023-05-24T12:40:16.534Z,9.48
2023-05-24T12:42:33.446Z,12.05
2023-05-24T12:44:50.398Z,13.70
2023-05-24T12:47:07.678Z,10.25
2023-05-24T12:49:24.751Z,12.00
2023-05-24T12:51:41.788Z,11.65
2023-05-24T12:53:58.681Z,12.93
2023-05-24T12:56:15.592Z,11.73
2023-05-24T12:58:32.503Z,11.15
2023-05-24T13:00:49.419Z,14.40
2023-05-24T13:03:06.895Z,13.50
2023-05-24T13:05:23.849Z,10.43
2023-05-24T13:07:40.864Z,12.55
2023-05-24T13:09:57.952Z,11.82
2023-05-24T13:12:15.328Z,12.20
2023-05-24T13:14:32.246Z,15.88
2023-05-24T13:16:49.303Z,10.40
2023-05-24T13:19:06.403Z,11.60
2023-05-24T13:21:23.372Z,15.82
2023-05-24T13:23:40.362Z,11.32
2023-05-24T13:25:57.318Z,13.00
2023-05-24T13:28:14.256Z,10.05
2023-05-24T13:30:31.155Z,16.45
2023-05-24T13:32:51.376Z,10.60
2023-05-24T13:35:08.756Z,10.13
2023-05-24T13:37:25.721Z,12.60
2023-05-24T13:39:42.627Z,11.65
2023-05-24T13:41:59.574Z,13.40
2023-05-24T13:44:16.612Z,14.38
2023-05-24T13:46:33.578Z,10.95
2023-05-24T13:48:50.518Z,17.60
2023-05-24T13:51:07.447Z,14.75
2023-05-24T13:53:24.390Z,11.93
2023-05-24T13:55:41.272Z,12.50
2023-05-24T13:57:58.189Z,13.30
2023-05-24T14:00:15.077Z,15.18
2023-05-24T14:02:32.062Z,12.38
2023-05-24T14:04:49.386Z,14.88
2023-05-24T14:07:06.380Z,10.98
2023-05-24T14:09:23.795Z,8.55
2023-05-24T14:11:41.207Z,11.93
2023-05-24T14:16:18.026Z,12.45
2023-05-24T14:18:35.040Z,13.20
2023-05-24T14:20:52.023Z,10.75
2023-05-24T14:23:08.938Z,13.30
2023-05-24T14:25:26.347Z,11.88
2023-05-24T14:27:43.815Z,12.32
2023-05-24T14:30:00.836Z,12.15
2023-05-24T14:32:17.914Z,13.52
2023-05-24T14:34:34.872Z,13.32
2023-05-24T14:36:51.792Z,10.48
2023-05-24T14:39:08.725Z,16.13
2023-05-24T14:41:25.679Z,13.02
2023-05-24T14:43:42.643Z,11.80
2023-05-24T14:45:59.616Z,14.45
2023-05-24T14:48:16.654Z,15.38
2023-05-24T14:50:33.599Z,13.82
2023-05-24T14:52:50.886Z,12.88
2023-05-24T14:55:08.590Z,14.90
2023-05-24T14:57:25.509Z,12.73
2023-05-24T14:59:42.427Z,13.85
2023-05-24T15:01:59.356Z,10.27
2023-05-24T15:04:16.270Z,9.07
2023-05-24T15:06:33.201Z,11.10
2023-05-24T15:08:50.569Z,11.88
2023-05-24T15:11:07.466Z,13.35
2023-05-24T15:13:24.355Z,11.95
2023-05-24T15:15:41.302Z,11.73
2023-05-24T15:17:58.244Z,10.95
2023-05-24T15:20:15.231Z,10.88
2023-05-24T15:22:32.126Z,12.15
2023-05-24T15:24:49.064Z,11.45
2023-05-24T15:27:05.992Z,11.07
2023-05-24T15:29:22.912Z,13.60
2023-05-24T15:31:39.814Z,12.15
2023-05-24T15:33:56.778Z,10.95
2023-05-24T15:36:13.685Z,14.95
2023-05-24T15:38:30.584Z,13.52
2023-05-24T15:40:47.500Z,15.38
2023-05-24T15:43:04.881Z,15.65
2023-05-24T15:45:21.770Z,12.88
2023-05-24T15:47:38.733Z,12.77
2023-05-24T15:49:55.642Z,14.55
2023-05-24T15:52:12.621Z,19.17
2023-05-24T15:54:29.500Z,15.25
2023-05-24T15:56:46.510Z,13.85
2023-05-24T15:59:03.892Z,15.93
2023-05-24T16:01:20.917Z,17.50
2023-05-24T16:03:38.274Z,14.40
2023-05-24T16:05:55.372Z,17.48
2023-05-24T16:08:12.307Z,16.05
2023-05-24T16:10:29.242Z,12.93
2023-05-24T16:12:46.138Z,11.75
2023-05-24T16:15:03.075Z,13.95
2023-05-24T16:17:20.083Z,14.85
2023-05-24T16:19:37.124Z,15.55
2023-05-24T16:21:54.099Z,15.13
2023-05-24T16:24:11.575Z,15.18
2023-05-24T16:26:28.551Z,12.98
2023-05-24T16:28:45.532Z,27.17
2023-05-24T16:31:02.470Z,13.30
2023-05-24T16:33:19.402Z,12.77
2023-05-24T16:35:36.351Z,12.65
2023-05-24T16:37:53.314Z,12.45
2023-05-24T16:40:10.259Z,13.80
2023-05-24T16:42:27.178Z,15.52
2023-05-24T16:44:44.121Z,13.88
2023-05-24T16:47:01.100Z,17.83
2023-05-24T16:49:18.464Z,12.30
2023-05-24T16:51:35.397Z,17.55
2023-05-24T16:53:52.328Z,9.50
2023-05-24T16:56:09.257Z,13.65
2023-05-24T16:58:26.184Z,14.30
2023-05-24T17:00:43.286Z,16.55
2023-05-24T17:03:00.416Z,17.25
2023-05-24T17:05:17.544Z,14.65
2023-05-24T17:07:34.463Z,11.93
2023-05-24T17:09:51.897Z,13.63
2023-05-24T17:12:08.867Z,12.45
2023-05-24T17:14:25.855Z,12.80
2023-05-24T17:16:42.843Z,12.85
2023-05-24T17:18:59.849Z,12.23
2023-05-24T17:21:16.745Z,14.55
2023-05-24T17:23:33.720Z,14.88
2023-05-24T17:25:50.660Z,12.20
2023-05-24T17:28:07.554Z,12.98
2023-05-24T17:30:24.489Z,12.70
2023-05-24T17:32:41.467Z,15.07
2023-05-24T17:34:58.406Z,11.60
2023-05-24T17:37:15.348Z,11.80
2023-05-24T17:39:32.300Z,11.10
2023-05-24T17:41:49.263Z,12.77
2023-05-24T17:44:06.202Z,15.00
2023-05-24T17:46:23.175Z,14.50
2023-05-24T17:48:40.109Z,12.95
2023-05-24T17:50:58.445Z,11.02
2023-05-24T17:53:30.444Z,13.52
2023-05-24T17:55:48.383Z,14.60
2023-05-24T17:58:05.766Z,11.73
2023-05-24T18:00:22.716Z,17.80
2023-05-24T18:02:39.725Z,13.98
2023-05-24T18:04:56.845Z,13.65
2023-05-24T18:07:13.789Z,14.35
2023-05-24T18:09:30.750Z,14.65
2023-05-24T18:11:47.682Z,11.15
2023-05-24T18:14:04.636Z,13.10
2023-05-24T18:16:21.603Z,15.60
2023-05-24T18:18:38.581Z,11.68
2023-05-24T18:20:55.518Z,12.65
2023-05-24T18:23:12.430Z,14.38
2023-05-24T18:25:29.341Z,15.25
2023-05-24T18:27:46.233Z,9.80
2023-05-24T18:30:03.190Z,11.30
2023-05-24T18:32:20.254Z,12.82
2023-05-24T18:34:37.142Z,12.93
2023-05-24T18:36:54.128Z,12.60
2023-05-24T18:39:11.509Z,14.25
2023-05-24T18:41:28.410Z,11.18
2023-05-24T18:43:45.323Z,12.45
2023-05-24T18:46:02.273Z,12.50
2023-05-24T18:48:19.184Z,14.63
2023-05-24T18:50:36.090Z,8.65
2023-05-24T18:52:52.970Z,9.32
2023-05-24T18:55:09.895Z,13.77
2023-05-24T18:57:26.794Z,15.23
2023-05-24T18:59:43.684Z,11.98
2023-05-24T19:02:00.667Z,13.60
2023-05-24T19:04:17.688Z,14.40
2023-05-24T19:06:34.624Z,12.77
2023-05-24T19:08:52.069Z,13.15
2023-05-24T19:11:09.022Z,15.10
2023-05-24T19:13:25.984Z,15.35
2023-05-24T19:15:43.184Z,10.80
2023-05-24T19:18:00.503Z,11.05
2023-05-24T19:20:17.854Z,16.00
2023-05-24T19:22:35.134Z,10.93
2023-05-24T19:24:52.065Z,12.07
2023-05-24T19:27:09.001Z,13.18
2023-05-24T19:29:25.932Z,10.45
2023-05-24T19:31:42.919Z,11.25
2023-05-24T19:34:01.178Z,14.38
2023-05-24T19:36:18.273Z,10.23
2023-05-24T19:38:35.179Z,12.18
2023-05-24T19:40:52.503Z,12.55
2023-05-24T19:43:09.458Z,11.98
2023-05-24T19:45:26.435Z,11.70
2023-05-24T19:47:43.360Z,8.65
2023-05-24T19:50:00.329Z,11.77
2023-05-24T19:52:17.271Z,9.80
2023-05-24T19:54:34.217Z,14.02
2023-05-24T19:56:51.199Z,10.77
2023-05-24T19:59:08.147Z,13.07
2023-05-24T20:01:25.080Z,17.20
2023-05-24T20:03:42.027Z,11.55
2023-05-24T20:05:59.019Z,12.85
2023-05-24T20:08:15.972Z,10.75
2023-05-24T20:10:32.916Z,12.48
2023-05-24T20:12:49.857Z,10.60
2023-05-24T20:15:06.791Z,12.10
2023-05-24T20:17:23.808Z,11.55
2023-05-24T20:19:40.804Z,12.45
2023-05-24T20:21:57.761Z,14.05
2023-05-24T20:24:14.699Z,13.80
2023-05-24T20:26:31.702Z,20.58
2023-05-24T20:28:48.647Z,15.60
2023-05-24T20:31:05.663Z,14.18
2023-05-24T20:33:22.579Z,10.27
2023-05-24T20:35:39.551Z,10.48
2023-05-24T20:37:56.475Z,14.93
2023-05-24T20:40:13.432Z,13.55
2023-05-24T20:42:30.348Z,11.45
2023-05-24T20:44:47.274Z,13.35
2023-05-24T20:47:04.209Z,10.05
2023-05-24T20:49:21.614Z,11.40
2023-05-24T20:51:38.954Z,12.10
2023-05-24T20:53:55.993Z,11.20
2023-05-24T20:56:12.882Z,14.77
2023-05-24T20:58:29.828Z,11.95
2023-05-24T21:00:46.791Z,13.18
2023-05-24T21:03:04.553Z,11.07
2023-05-24T21:05:21.658Z,13.02
2023-05-24T21:07:38.565Z,13.40
2023-05-24T21:09:55.503Z,9.80
2023-05-24T21:12:12.439Z,14.65
2023-05-24T21:14:31.387Z,10.52
2023-05-24T21:16:48.856Z,13.98
2023-05-24T21:19:05.829Z,10.27
2023-05-24T21:21:22.741Z,15.63
2023-05-24T21:23:39.747Z,11.43
2023-05-24T21:25:56.769Z,12.32
2023-05-24T21:28:13.670Z,10.00
2023-05-24T21:30:30.714Z,12.88
2023-05-24T21:32:47.715Z,11.38
2023-05-24T21:35:05.222Z,20.95
2023-05-24T21:37:22.145Z,26.67
2023-05-24T21:39:39.079Z,30.05
2023-05-24T21:41:55.991Z,23.17
2023-05-24T21:44:12.897Z,22.30
2023-05-24T21:46:29.869Z,19.60
2023-05-24T21:48:46.830Z,16.27
2023-05-24T21:51:03.733Z,15.00
2023-05-24T21:53:20.681Z,13.20
2023-05-24T21:55:37.691Z,14.77
2023-05-24T21:57:54.643Z,15.65
2023-05-24T22:00:13.604Z,11.90
2023-05-24T22:02:30.544Z,12.48
2023-05-24T22:04:48.063Z,11.85
2023-05-24T22:07:07.119Z,13.95
2023-05-24T22:09:26.172Z,15.27
2023-05-24T22:11:43.179Z,14.77
2023-05-24T22:14:00.140Z,12.55
2023-05-24T22:16:17.158Z,17.55
2023-05-24T22:18:34.101Z,19.45
2023-05-24T22:20:51.586Z,19.38
2023-05-24T22:23:08.782Z,16.75
2023-05-24T22:25:33.016Z,15.90
2023-05-24T22:27:52.217Z,15.07
2023-05-24T22:30:09.127Z,13.07
2023-05-24T22:32:26.136Z,11.90
2023-05-24T22:34:43.123Z,11.85
2023-05-24T22:37:07.261Z,16.63
2023-05-24T22:41:42.114Z,14.82
2023-05-24T22:43:59.737Z,14.32
2023-05-24T22:46:16.706Z,13.18
2023-05-24T22:48:33.937Z,14.68
2023-05-24T22:50:50.897Z,13.35
2023-05-24T22:53:07.921Z,12.40
2023-05-24T22:55:24.816Z,10.77
2023-05-24T22:57:42.120Z,14.63
2023-05-24T22:59:59.033Z,14.30
2023-05-24T23:02:18.528Z,15.05
2023-05-24T23:04:35.488Z,12.98
2023-05-24T23:06:53.430Z,14.20
2023-05-24T23:09:11.596Z,12.63
2023-05-24T23:11:28.587Z,15.68
2023-05-24T23:13:45.538Z,9.80
2023-05-24T23:16:02.489Z,17.10
2023-05-24T23:18:20.470Z,12.98
2023-05-24T23:20:37.416Z,14.55
2023-05-24T23:22:54.307Z,13.05
2023-05-24T23:25:11.226Z,11.25
2023-05-24T23:27:28.164Z,11.07
2023-05-24T23:29:45.154Z,12.02
2023-05-24T23:32:02.046Z,11.82
2023-05-24T23:34:18.955Z,11.38
2023-05-24T23:36:36.358Z,10.57
2023-05-24T23:41:24.250Z,10.05
2023-05-24T23:43:41.256Z,14.38
2023-05-24T23:45:58.203Z,12.25
2023-05-24T23:48:17.835Z,16.77
2023-05-24T23:50:42.861Z,13.93
2023-05-24T23:53:07.339Z,15.10
2023-05-24T23:55:24.275Z,15.57
2023-05-24T23:57:41.211Z,14.90
